Swift — WDC6885 — position and weather

sailwx.info

Track history (hours):
 
Tides and Currents Weather Stations Pressure Air Temp Water Temp Dewpoint Dewpoint Depression Visibility Wind Speed Wind Dir Waves Ship Positions

Swift

Owner: Mohawk Marine, LLC, Newington, CT. More information available from US FCC via Universal Licensing System and Coast Guard Vessel Documentation Center.

Last reported at 2015-Jul-07 23:33 UTC. Time now 2015-Jul-08 00:01 UTC.
Position N 41°22' W 072°05'.

; draft 2.5 m.

Type: Towing. MMSI: 367062680.

Date/timePositionNaut miles runAvg speedWind from/ knotsBaromVisibWave heightAir tempDewpointWater temp
2015-Jul-07 23:33N 41°22' W 072°05'0 0.0
2015-Jul-07 22:33N 41°22' W 072°05'0 0.0
2015-Jul-07 21:33N 41°22' W 072°05'0 0.0
2015-Jul-07 20:33N 41°22' W 072°05'0 0.0
2015-Jul-07 19:33N 41°22' W 072°05'0 0.0
2015-Jul-07 18:33N 41°22' W 072°05'0 0.0
2015-Jul-07 17:33N 41°22' W 072°05'1 1.5
2015-Jul-07 16:33N 41°23' W 072°06'1 1.5
2015-Jul-07 15:33N 41°22' W 072°05'0 0.0
2015-Jul-07 14:33N 41°22' W 072°05'0 0.0
2015-Jul-07 13:33N 41°22' W 072°05'0 0.0
2015-Jul-07 12:33N 41°22' W 072°05'0 0.0
2015-Jul-07 11:33N 41°22' W 072°05'0 0.0
2015-Jul-07 10:33N 41°22' W 072°05'0 0.0
2015-Jul-07 09:33N 41°22' W 072°05'0 0.0
2015-Jul-07 08:33N 41°22' W 072°05'0 0.0
2015-Jul-07 07:33N 41°22' W 072°05'0 0.0
2015-Jul-07 06:33N 41°22' W 072°05'0 0.0
2015-Jul-07 05:33N 41°22' W 072°05'0 0.0
2015-Jul-07 04:33N 41°22' W 072°05'0 0.0
2015-Jul-07 03:33N 41°22' W 072°05'0 0.0
2015-Jul-07 02:33N 41°22' W 072°05'0 0.0
2015-Jul-07 01:33N 41°22' W 072°05'0 0.0
2015-Jul-07 00:33N 41°22' W 072°05'0 0.0
2015-Jul-06 23:33N 41°22' W 072°05'0 0.0
2015-Jul-06 22:33N 41°22' W 072°05'0 0.0
2015-Jul-06 21:33N 41°22' W 072°05'0 0.0
2015-Jul-06 20:33N 41°22' W 072°05'0 0.0
2015-Jul-06 19:33N 41°22' W 072°05'0 0.0
2015-Jul-06 18:33N 41°22' W 072°05'0 0.0
2015-Jul-06 17:33N 41°22' W 072°05'0 0.0
2015-Jul-06 16:33N 41°22' W 072°05'0 0.0
2015-Jul-06 15:33N 41°22' W 072°05'0 0.0
2015-Jul-06 14:33N 41°22' W 072°05'0 0.0
2015-Jul-06 13:33N 41°22' W 072°05'0 0.0
2015-Jul-06 12:33N 41°22' W 072°05'  
2015-Jul-04 08:24N 41°16' W 072°12'6 7.6
2015-Jul-04 07:33N 41°17' W 072°21'7 7.0
2015-Jul-04 06:33N 41°23' W 072°24'2 0.0
2015-Jul-02 09:19N 41°25' W 072°25'3 4.4
2015-Jul-02 08:33N 41°22' W 072°23'4 4.4
2015-Jul-02 07:33N 41°18' W 072°21'4 4.2
2015-Jul-02 06:33N 41°15' W 072°17'5 4.7
2015-Jul-02 05:33N 41°16' W 072°11'6 5.5
2015-Jul-02 04:33N 41°19' W 072°05'3 3.2
2015-Jul-02 03:33N 41°22' W 072°05'0 0.0
2015-Jul-02 02:33N 41°22' W 072°05'0 0.0
2015-Jul-02 01:33N 41°22' W 072°05'0 0.0
2015-Jul-02 00:33N 41°22' W 072°05'0 0.0
2015-Jul-01 23:33N 41°22' W 072°05'0 0.0
2015-Jul-01 22:33N 41°22' W 072°05'0 0.0
2015-Jul-01 21:33N 41°22' W 072°05'0 0.0
2015-Jul-01 20:33N 41°22' W 072°05'0 0.0
2015-Jul-01 19:33N 41°22' W 072°05'0 0.0
2015-Jul-01 18:33N 41°22' W 072°05'0 0.0
2015-Jul-01 17:33N 41°22' W 072°05'0 0.0
2015-Jul-01 16:33N 41°22' W 072°05'0 0.0
2015-Jul-01 15:33N 41°22' W 072°05'0 0.0
2015-Jul-01 14:33N 41°22' W 072°05'0 0.0
2015-Jul-01 13:33N 41°22' W 072°05'0 0.0
2015-Jul-01 12:33N 41°22' W 072°05'0 0.0
2015-Jul-01 11:33N 41°22' W 072°05'0 0.0
2015-Jul-01 10:32N 41°22' W 072°05'1 1.3
2015-Jul-01 09:34N 41°21' W 072°05'1 1.3
2015-Jul-01 08:33N 41°22' W 072°05'0 0.0
2015-Jul-01 07:33N 41°22' W 072°05'0 0.0
2015-Jul-01 06:33N 41°22' W 072°05'0 0.0
2015-Jul-01 05:17N 41°22' W 072°05'0 0.0
2015-Jul-01 04:33N 41°22' W 072°05'0 0.0
2015-Jul-01 03:33N 41°22' W 072°05'0 0.0
2015-Jul-01 02:33N 41°22' W 072°05'0 0.0
2015-Jul-01 01:33N 41°22' W 072°05'0 0.0
2015-Jul-01 00:33N 41°22' W 072°05'0 0.0
2015-Jun-30 23:33N 41°22' W 072°05'0 0.0
2015-Jun-30 22:33N 41°22' W 072°05'0 0.0
2015-Jun-30 21:33N 41°22' W 072°05'0 0.0
2015-Jun-30 20:33N 41°22' W 072°05'0 0.0
2015-Jun-30 19:33N 41°22' W 072°05'0 0.0
2015-Jun-30 18:33N 41°22' W 072°05'0 0.0
2015-Jun-30 17:33N 41°22' W 072°05'0 0.0
2015-Jun-30 16:33N 41°22' W 072°05'0 0.0
2015-Jun-30 15:21N 41°22' W 072°05'0 0.0
2015-Jun-30 14:33N 41°22' W 072°05'1 1.2
2015-Jun-30 13:33N 41°21' W 072°05'1 1.2
2015-Jun-30 12:33N 41°22' W 072°05'0 0.0
2015-Jun-30 11:33N 41°22' W 072°05'0 0.0
2015-Jun-30 10:33N 41°22' W 072°05'0 0.0
2015-Jun-30 09:33N 41°22' W 072°05'0 0.0
2015-Jun-30 08:33N 41°22' W 072°05'0 0.0
2015-Jun-30 07:33N 41°22' W 072°05'0 0.0
2015-Jun-30 06:33N 41°22' W 072°05'0 0.0
2015-Jun-30 05:33N 41°22' W 072°05'0 0.0
2015-Jun-30 04:33N 41°22' W 072°05'0 0.0
2015-Jun-30 03:33N 41°22' W 072°05'0 0.0
2015-Jun-30 02:33N 41°22' W 072°05'0 0.1
2015-Jun-30 01:33N 41°22' W 072°05'0 0.0
2015-Jun-30 00:33N 41°22' W 072°05'0 0.0
2015-Jun-29 23:33N 41°22' W 072°05'0 0.0
2015-Jun-29 22:33N 41°22' W 072°05'0 0.0
2015-Jun-29 21:33N 41°22' W 072°05'0 0.0
2015-Jun-29 20:33N 41°22' W 072°05'0 0.0
2015-Jun-29 19:33N 41°22' W 072°05'0 0.0
2015-Jun-29 18:33N 41°22' W 072°05'0 0.0
2015-Jun-29 17:33N 41°22' W 072°05'0 0.0
2015-Jun-29 16:33N 41°22' W 072°05'0 0.0
2015-Jun-29 15:33N 41°22' W 072°05'0 0.0
2015-Jun-29 14:33N 41°22' W 072°05'0 0.0
2015-Jun-29 13:33N 41°22' W 072°05'0 0.0
2015-Jun-29 12:33N 41°22' W 072°05'0 0.0
2015-Jun-29 11:33N 41°22' W 072°05'0 0.0
2015-Jun-29 10:33N 41°22' W 072°05'0 0.0
2015-Jun-29 09:34N 41°22' W 072°05'0 0.0
2015-Jun-29 08:33N 41°22' W 072°05'0 0.0
2015-Jun-29 07:33N 41°22' W 072°05'0 0.0
2015-Jun-29 06:33N 41°22' W 072°05'0 0.0
2015-Jun-29 05:33N 41°22' W 072°05'0 0.0
2015-Jun-29 04:33N 41°22' W 072°05'0 0.0
2015-Jun-29 03:33N 41°22' W 072°05'0 0.0
2015-Jun-29 02:33N 41°22' W 072°05'0 0.0
2015-Jun-29 01:33N 41°22' W 072°05'0 0.0
2015-Jun-29 00:33N 41°22' W 072°05'0 0.0
2015-Jun-28 23:33N 41°22' W 072°05'0 0.0
2015-Jun-28 22:33N 41°22' W 072°05'0 0.0
2015-Jun-28 21:33N 41°22' W 072°05'0 0.0
2015-Jun-28 20:33N 41°22' W 072°05'0 0.0
2015-Jun-28 19:33N 41°22' W 072°05'0 0.0
2015-Jun-28 18:33N 41°22' W 072°05'0 0.0
2015-Jun-28 17:33N 41°22' W 072°05'0 0.0
2015-Jun-28 16:33N 41°22' W 072°05'0 0.0
2015-Jun-28 15:33N 41°22' W 072°05'0 0.0
2015-Jun-28 14:33N 41°22' W 072°05'0 0.0
2015-Jun-28 13:34N 41°22' W 072°05'0 0.0
2015-Jun-28 12:33N 41°22' W 072°05'0 0.0
2015-Jun-28 11:33N 41°22' W 072°05'0 0.0
2015-Jun-28 10:33N 41°22' W 072°05'0 0.0
2015-Jun-28 09:33N 41°22' W 072°05'0 0.0
2015-Jun-28 08:33N 41°22' W 072°05'0 0.0
2015-Jun-28 07:34N 41°22' W 072°05'0 0.0
2015-Jun-28 06:33N 41°22' W 072°05'0 0.0
2015-Jun-28 05:33N 41°22' W 072°05'0 0.0
2015-Jun-28 04:33N 41°22' W 072°05'0 0.0
2015-Jun-28 03:33N 41°22' W 072°05'0 0.0
2015-Jun-28 02:33N 41°22' W 072°05'0 0.0
2015-Jun-28 01:33N 41°22' W 072°05'0 0.0
2015-Jun-28 00:33N 41°22' W 072°05'0 0.0
2015-Jun-27 23:33N 41°22' W 072°05'  
Track history (hours):
 
Tides and Currents Weather Stations Pressure Air Temp Water Temp Dewpoint Dewpoint Depression Visibility Wind Speed Wind Dir Waves Ship Positions

Swift

Owner: Mohawk Marine, LLC, Newington, CT. More information available from US FCC via Universal Licensing System and Coast Guard Vessel Documentation Center.

Last reported at 2015-Jul-07 23:33 UTC. Time now 2015-Jul-08 00:01 UTC.
Position N 41°22' W 072°05'.

; draft 2.5 m.

Type: Towing. MMSI: 367062680.

Date/timePositionNaut miles runAvg speedWind from/ knotsBaromVisibWave heightAir tempDewpointWater temp
2015-Jul-07 23:33N 41°22' W 072°05'0 0.0
2015-Jul-07 22:33N 41°22' W 072°05'0 0.0
2015-Jul-07 21:33N 41°22' W 072°05'0 0.0
2015-Jul-07 20:33N 41°22' W 072°05'0 0.0
2015-Jul-07 19:33N 41°22' W 072°05'0 0.0
2015-Jul-07 18:33N 41°22' W 072°05'0 0.0
2015-Jul-07 17:33N 41°22' W 072°05'1 1.5
2015-Jul-07 16:33N 41°23' W 072°06'1 1.5
2015-Jul-07 15:33N 41°22' W 072°05'0 0.0
2015-Jul-07 14:33N 41°22' W 072°05'0 0.0
2015-Jul-07 13:33N 41°22' W 072°05'0 0.0
2015-Jul-07 12:33N 41°22' W 072°05'0 0.0
2015-Jul-07 11:33N 41°22' W 072°05'0 0.0
2015-Jul-07 10:33N 41°22' W 072°05'0 0.0
2015-Jul-07 09:33N 41°22' W 072°05'0 0.0
2015-Jul-07 08:33N 41°22' W 072°05'0 0.0
2015-Jul-07 07:33N 41°22' W 072°05'0 0.0
2015-Jul-07 06:33N 41°22' W 072°05'0 0.0
2015-Jul-07 05:33N 41°22' W 072°05'0 0.0
2015-Jul-07 04:33N 41°22' W 072°05'0 0.0
2015-Jul-07 03:33N 41°22' W 072°05'0 0.0
2015-Jul-07 02:33N 41°22' W 072°05'0 0.0
2015-Jul-07 01:33N 41°22' W 072°05'0 0.0
2015-Jul-07 00:33N 41°22' W 072°05'0 0.0
2015-Jul-06 23:33N 41°22' W 072°05'0 0.0
2015-Jul-06 22:33N 41°22' W 072°05'0 0.0
2015-Jul-06 21:33N 41°22' W 072°05'0 0.0
2015-Jul-06 20:33N 41°22' W 072°05'0 0.0
2015-Jul-06 19:33N 41°22' W 072°05'0 0.0
2015-Jul-06 18:33N 41°22' W 072°05'0 0.0
2015-Jul-06 17:33N 41°22' W 072°05'0 0.0
2015-Jul-06 16:33N 41°22' W 072°05'0 0.0
2015-Jul-06 15:33N 41°22' W 072°05'0 0.0
2015-Jul-06 14:33N 41°22' W 072°05'0 0.0
2015-Jul-06 13:33N 41°22' W 072°05'0 0.0
2015-Jul-06 12:33N 41°22' W 072°05'  
2015-Jul-04 08:24N 41°16' W 072°12'6 7.6
2015-Jul-04 07:33N 41°17' W 072°21'7 7.0
2015-Jul-04 06:33N 41°23' W 072°24'2 0.0
2015-Jul-02 09:19N 41°25' W 072°25'3 4.4
2015-Jul-02 08:33N 41°22' W 072°23'4 4.4
2015-Jul-02 07:33N 41°18' W 072°21'4 4.2
2015-Jul-02 06:33N 41°15' W 072°17'5 4.7
2015-Jul-02 05:33N 41°16' W 072°11'6 5.5
2015-Jul-02 04:33N 41°19' W 072°05'3 3.2
2015-Jul-02 03:33N 41°22' W 072°05'0 0.0
2015-Jul-02 02:33N 41°22' W 072°05'0 0.0
2015-Jul-02 01:33N 41°22' W 072°05'0 0.0
2015-Jul-02 00:33N 41°22' W 072°05'0 0.0
2015-Jul-01 23:33N 41°22' W 072°05'0 0.0
2015-Jul-01 22:33N 41°22' W 072°05'0 0.0
2015-Jul-01 21:33N 41°22' W 072°05'0 0.0
2015-Jul-01 20:33N 41°22' W 072°05'0 0.0
2015-Jul-01 19:33N 41°22' W 072°05'0 0.0
2015-Jul-01 18:33N 41°22' W 072°05'0 0.0
2015-Jul-01 17:33N 41°22' W 072°05'0 0.0
2015-Jul-01 16:33N 41°22' W 072°05'0 0.0
2015-Jul-01 15:33N 41°22' W 072°05'0 0.0
2015-Jul-01 14:33N 41°22' W 072°05'0 0.0
2015-Jul-01 13:33N 41°22' W 072°05'0 0.0
2015-Jul-01 12:33N 41°22' W 072°05'0 0.0
2015-Jul-01 11:33N 41°22' W 072°05'0 0.0
2015-Jul-01 10:32N 41°22' W 072°05'1 1.3
2015-Jul-01 09:34N 41°21' W 072°05'1 1.3
2015-Jul-01 08:33N 41°22' W 072°05'0 0.0
2015-Jul-01 07:33N 41°22' W 072°05'0 0.0
2015-Jul-01 06:33N 41°22' W 072°05'0 0.0
2015-Jul-01 05:17N 41°22' W 072°05'0 0.0
2015-Jul-01 04:33N 41°22' W 072°05'0 0.0
2015-Jul-01 03:33N 41°22' W 072°05'0 0.0
2015-Jul-01 02:33N 41°22' W 072°05'0 0.0
2015-Jul-01 01:33N 41°22' W 072°05'0 0.0
2015-Jul-01 00:33N 41°22' W 072°05'0 0.0
2015-Jun-30 23:33N 41°22' W 072°05'0 0.0
2015-Jun-30 22:33N 41°22' W 072°05'0 0.0
2015-Jun-30 21:33N 41°22' W 072°05'0 0.0
2015-Jun-30 20:33N 41°22' W 072°05'0 0.0
2015-Jun-30 19:33N 41°22' W 072°05'0 0.0
2015-Jun-30 18:33N 41°22' W 072°05'0 0.0
2015-Jun-30 17:33N 41°22' W 072°05'0 0.0
2015-Jun-30 16:33N 41°22' W 072°05'0 0.0
2015-Jun-30 15:21N 41°22' W 072°05'0 0.0
2015-Jun-30 14:33N 41°22' W 072°05'1 1.2
2015-Jun-30 13:33N 41°21' W 072°05'1 1.2
2015-Jun-30 12:33N 41°22' W 072°05'0 0.0
2015-Jun-30 11:33N 41°22' W 072°05'0 0.0
2015-Jun-30 10:33N 41°22' W 072°05'0 0.0
2015-Jun-30 09:33N 41°22' W 072°05'0 0.0
2015-Jun-30 08:33N 41°22' W 072°05'0 0.0
2015-Jun-30 07:33N 41°22' W 072°05'0 0.0
2015-Jun-30 06:33N 41°22' W 072°05'0 0.0
2015-Jun-30 05:33N 41°22' W 072°05'0 0.0
2015-Jun-30 04:33N 41°22' W 072°05'0 0.0
2015-Jun-30 03:33N 41°22' W 072°05'0 0.0
2015-Jun-30 02:33N 41°22' W 072°05'0 0.1
2015-Jun-30 01:33N 41°22' W 072°05'0 0.0
2015-Jun-30 00:33N 41°22' W 072°05'0 0.0
2015-Jun-29 23:33N 41°22' W 072°05'0 0.0
2015-Jun-29 22:33N 41°22' W 072°05'0 0.0
2015-Jun-29 21:33N 41°22' W 072°05'0 0.0
2015-Jun-29 20:33N 41°22' W 072°05'0 0.0
2015-Jun-29 19:33N 41°22' W 072°05'0 0.0
2015-Jun-29 18:33N 41°22' W 072°05'0 0.0
2015-Jun-29 17:33N 41°22' W 072°05'0 0.0
2015-Jun-29 16:33N 41°22' W 072°05'0 0.0
2015-Jun-29 15:33N 41°22' W 072°05'0 0.0
2015-Jun-29 14:33N 41°22' W 072°05'0 0.0
2015-Jun-29 13:33N 41°22' W 072°05'0 0.0
2015-Jun-29 12:33N 41°22' W 072°05'0 0.0
2015-Jun-29 11:33N 41°22' W 072°05'0 0.0
2015-Jun-29 10:33N 41°22' W 072°05'0 0.0
2015-Jun-29 09:34N 41°22' W 072°05'0 0.0
2015-Jun-29 08:33N 41°22' W 072°05'0 0.0
2015-Jun-29 07:33N 41°22' W 072°05'0 0.0
2015-Jun-29 06:33N 41°22' W 072°05'0 0.0
2015-Jun-29 05:33N 41°22' W 072°05'0 0.0
2015-Jun-29 04:33N 41°22' W 072°05'0 0.0
2015-Jun-29 03:33N 41°22' W 072°05'0 0.0
2015-Jun-29 02:33N 41°22' W 072°05'0 0.0
2015-Jun-29 01:33N 41°22' W 072°05'0 0.0
2015-Jun-29 00:33N 41°22' W 072°05'0 0.0
2015-Jun-28 23:33N 41°22' W 072°05'0 0.0
2015-Jun-28 22:33N 41°22' W 072°05'0 0.0
2015-Jun-28 21:33N 41°22' W 072°05'0 0.0
2015-Jun-28 20:33N 41°22' W 072°05'0 0.0
2015-Jun-28 19:33N 41°22' W 072°05'0 0.0
2015-Jun-28 18:33N 41°22' W 072°05'0 0.0
2015-Jun-28 17:33N 41°22' W 072°05'0 0.0
2015-Jun-28 16:33N 41°22' W 072°05'0 0.0
2015-Jun-28 15:33N 41°22' W 072°05'0 0.0
2015-Jun-28 14:33N 41°22' W 072°05'0 0.0
2015-Jun-28 13:34N 41°22' W 072°05'0 0.0
2015-Jun-28 12:33N 41°22' W 072°05'0 0.0
2015-Jun-28 11:33N 41°22' W 072°05'0 0.0
2015-Jun-28 10:33N 41°22' W 072°05'0 0.0
2015-Jun-28 09:33N 41°22' W 072°05'0 0.0
2015-Jun-28 08:33N 41°22' W 072°05'0 0.0
2015-Jun-28 07:34N 41°22' W 072°05'0 0.0
2015-Jun-28 06:33N 41°22' W 072°05'0 0.0
2015-Jun-28 05:33N 41°22' W 072°05'0 0.0
2015-Jun-28 04:33N 41°22' W 072°05'0 0.0
2015-Jun-28 03:33N 41°22' W 072°05'0 0.0
2015-Jun-28 02:33N 41°22' W 072°05'0 0.0
2015-Jun-28 01:33N 41°22' W 072°05'0 0.0
2015-Jun-28 00:33N 41°22' W 072°05'0 0.0
2015-Jun-27 23:33N 41°22' W 072°05'  

Dump ship's entire track history